Time;durP1;ratioP1;P1;durP2;ratioP2;P2;SDS_P1;SDS_P2;PMS_P1;PMS_P2;Temp;Humidity;BMP_temperature;BMP_pressure;BME280_temperature;BME280_humidity;BME280_pressure;Samples;Min_cycle;Max_cycle;Signal;HPM_P1;HPM_P2
2021/09/09 00:00:53;;;;;;;17.98;13.65;;;14.20;99.90;;;15.77;100.00;100173.53;6108361;23;20121;-88
2021/09/09 00:03:20;;;;;;;18.58;14.65;;;14.20;99.90;;;15.72;100.00;100173.97;6106311;23;20009;-89
2021/09/09 00:05:45;;;;;;;17.42;14.18;;;14.20;99.90;;;15.73;100.00;100166.31;6107390;23;20010;-85
2021/09/09 00:08:12;;;;;;;19.88;14.35;;;14.20;99.90;;;15.74;100.00;100173.53;6134014;23;20016;-85
2021/09/09 00:10:39;;;;;;;18.85;13.90;;;14.10;99.90;;;15.72;100.00;100162.69;6132586;23;20010;-86
2021/09/09 00:13:05;;;;;;;16.10;12.65;;;14.10;99.90;;;15.69;100.00;100166.31;6108016;23;20009;-88
2021/09/09 00:15:31;;;;;;;19.92;12.70;;;14.00;99.90;;;15.65;100.00;100159.09;6133253;23;20069;-87
2021/09/09 00:17:58;;;;;;;20.20;13.20;;;14.00;99.90;;;15.63;100.00;100161.50;6106847;23;20013;-87
2021/09/09 00:20:25;;;;;;;17.38;13.75;;;14.00;99.90;;;15.60;100.00;100154.69;6107716;23;20037;-86
2021/09/09 00:22:50;;;;;;;16.15;12.93;;;14.00;99.90;;;15.58;100.00;100143.00;6108667;23;20017;-86
2021/09/09 00:25:16;;;;;;;19.40;14.15;;;14.00;99.90;;;15.56;100.00;100151.06;6108782;23;20009;-86
2021/09/09 00:27:42;;;;;;;17.20;13.60;;;13.90;99.90;;;15.53;100.00;100139.81;6149603;23;20070;-85
2021/09/09 00:30:09;;;;;;;17.50;12.93;;;13.90;99.90;;;15.47;100.00;100147.00;6138822;23;20029;-84
2021/09/09 00:32:35;;;;;;;16.83;13.02;;;13.80;99.90;;;15.42;100.00;100136.97;6104307;23;20010;-86
2021/09/09 00:35:01;;;;;;;22.55;14.50;;;13.80;99.90;;;15.42;100.00;100130.53;6104801;23;20033;-85
2021/09/09 00:37:27;;;;;;;21.13;15.02;;;13.80;99.90;;;15.43;100.00;100132.13;6105152;23;20078;-84
2021/09/09 00:39:53;;;;;;;18.00;14.57;;;13.90;99.90;;;15.43;100.00;100135.75;6129357;23;20348;-87
2021/09/09 00:42:19;;;;;;;18.00;12.60;;;13.80;99.90;;;15.41;100.00;100132.53;6109348;23;20077;-85
2021/09/09 00:44:45;;;;;;;18.40;13.45;;;13.80;99.90;;;15.42;100.00;100131.34;6109650;23;20016;-86
2021/09/09 00:47:12;;;;;;;20.73;13.70;;;13.80;99.90;;;15.42;100.00;100120.06;6134287;23;20025;-86
2021/09/09 00:49:43;;;;;;;20.33;15.18;;;13.80;99.90;;;15.42;100.00;100122.88;6108221;23;20010;-85
2021/09/09 00:52:14;;;;;;;19.55;14.43;;;13.80;99.90;;;15.39;100.00;100117.25;6109183;23;20006;-84
2021/09/09 00:54:47;;;;;;;19.92;14.40;;;13.80;99.90;;;15.37;100.00;100122.50;6109247;23;20060;-87
2021/09/09 00:57:17;;;;;;;19.33;13.75;;;13.80;99.90;;;15.33;100.00;100114.06;6109301;23;20093;-86
2021/09/09 00:59:45;;;;;;;20.42;13.82;;;13.70;99.90;;;15.29;100.00;100118.88;6138974;23;20044;-86
2021/09/09 01:02:12;;;;;;;17.73;13.07;;;13.70;99.90;;;15.24;100.00;100113.66;6111672;23;20101;-84
2021/09/09 01:04:39;;;;;;;18.60;13.10;;;13.60;99.90;;;15.24;100.00;100117.28;6106384;23;20415;-82
2021/09/09 01:07:05;;;;;;;21.70;14.20;;;13.60;99.90;;;15.36;100.00;100115.25;6131864;23;20005;-84
2021/09/09 01:09:31;;;;;;;18.05;12.90;;;13.70;99.90;;;15.34;100.00;100112.88;6108763;23;20032;-83
2021/09/09 01:11:58;;;;;;;17.25;13.30;;;13.70;99.90;;;15.26;100.00;100109.25;6134183;23;20013;-83
2021/09/09 01:14:24;;;;;;;18.88;12.85;;;13.60;99.90;;;15.22;100.00;100107.63;6113982;23;20024;-83
2021/09/09 01:16:50;;;;;;;19.40;13.88;;;13.60;99.90;;;15.20;100.00;100107.22;6121774;23;20150;-86
2021/09/09 01:19:19;;;;;;;20.10;13.73;;;13.60;99.90;;;15.23;100.00;100093.16;6105124;23;20088;-84
2021/09/09 01:21:45;;;;;;;16.88;13.45;;;13.60;99.90;;;15.20;100.00;100102.41;6103925;23;20006;-83
2021/09/09 01:24:19;;;;;;;18.08;13.23;;;13.60;99.90;;;15.22;100.00;100099.97;6128608;23;20080;-85
2021/09/09 01:27:01;;;;;;;20.83;14.75;;;13.60;99.90;;;15.20;100.00;100090.34;6105093;23;20021;-84
2021/09/09 01:29:39;;;;;;;19.75;14.00;;;13.60;99.90;;;15.21;100.00;100091.97;6104788;23;20006;-85
2021/09/09 01:32:08;;;;;;;17.15;12.93;;;13.60;99.90;;;15.18;100.00;100084.34;6128506;23;20348;-85
2021/09/09 01:34:35;;;;;;;22.25;14.93;;;13.60;99.90;;;15.14;100.00;100089.16;6104175;23;20013;-85
2021/09/09 01:37:02;;;;;;;21.33;14.70;;;13.50;99.90;;;15.16;100.00;100089.53;6105868;23;20061;-86
2021/09/09 01:39:29;;;;;;;20.35;15.32;;;13.50;99.90;;;15.29;100.00;100085.13;6104605;23;20365;-83
2021/09/09 01:41:58;;;;;;;18.60;14.18;;;13.70;99.90;;;15.38;100.00;100081.91;6103613;23;20030;-85
2021/09/09 01:44:28;;;;;;;17.25;12.90;;;13.70;99.90;;;15.42;100.00;100085.50;6104440;23;20041;-85
2021/09/09 01:46:54;;;;;;;17.35;13.10;;;13.70;99.90;;;15.36;100.00;100084.31;6131392;23;20010;-85
2021/09/09 01:49:22;;;;;;;19.92;14.93;;;13.70;99.90;;;15.38;100.00;100085.50;6105732;23;20017;-84
2021/09/09 01:51:49;;;;;;;19.73;14.63;;;13.70;99.90;;;15.58;100.00;100072.63;6130724;23;20014;-84
2021/09/09 01:54:16;;;;;;;20.98;15.23;;;13.90;99.90;;;15.62;100.00;100076.25;6107442;23;20021;-85
2021/09/09 01:56:42;;;;;;;21.48;16.30;;;13.90;99.90;;;15.73;100.00;100067.78;6106815;23;20340;-86
2021/09/09 01:59:07;;;;;;;21.38;14.70;;;14.00;99.90;;;15.85;100.00;100070.16;6107568;23;20064;-86
2021/09/09 02:01:33;;;;;;;21.10;15.02;;;14.10;99.90;;;15.90;100.00;100066.09;6106399;23;20010;-84
2021/09/09 02:04:01;;;;;;;19.38;14.65;;;14.20;99.90;;;15.91;100.00;100071.34;6108364;23;20048;-84
2021/09/09 02:06:27;;;;;;;22.60;14.20;;;14.30;99.90;;;15.97;100.00;100061.25;6108420;23;20101;-85
2021/09/09 02:08:52;;;;;;;18.27;13.82;;;14.30;99.90;;;15.95;100.00;100063.69;6107791;23;20065;-86
2021/09/09 02:11:20;;;;;;;21.50;14.55;;;14.20;99.90;;;16.00;100.00;100060.44;6107188;23;20032;-86
2021/09/09 02:13:47;;;;;;;22.77;15.48;;;14.30;99.90;;;16.12;100.00;100051.50;6111730;23;20014;-85
2021/09/09 02:16:13;;;;;;;21.20;15.43;;;14.40;99.90;;;16.23;100.00;100059.91;6112414;23;20025;-84
2021/09/09 02:18:39;;;;;;;16.90;13.95;;;14.60;99.90;;;16.31;100.00;100059.47;6111039;23;20005;-86
2021/09/09 02:21:06;;;;;;;19.98;14.80;;;14.60;99.90;;;16.39;99.76;100060.22;6110977;23;20013;-85
2021/09/09 02:23:31;;;;;;;20.35;14.40;;;14.70;99.90;;;16.47;98.81;100053.31;6112941;23;20013;-86
2021/09/09 02:25:57;;;;;;;20.17;14.70;;;14.80;99.90;;;16.51;98.56;100050.47;6111480;23;20321;-86
2021/09/09 02:28:23;;;;;;;17.40;13.20;;;14.80;99.90;;;16.52;98.33;100057.72;6106165;23;20021;-84
2021/09/09 02:30:51;;;;;;;19.13;14.40;;;14.80;99.90;;;16.53;97.78;100057.34;6105265;23;20014;-86
2021/09/09 02:33:17;;;;;;;19.00;13.88;;;14.90;99.90;;;16.55;97.62;100054.94;6129411;23;20408;-85
2021/09/09 02:35:42;;;;;;;19.02;13.15;;;14.90;99.90;;;16.49;97.44;100050.09;6106332;23;20069;-84
2021/09/09 02:38:08;;;;;;;18.90;14.40;;;14.80;99.90;;;16.44;97.71;100050.56;6106204;23;20096;-85
2021/09/09 02:40:34;;;;;;;18.15;12.98;;;14.80;99.90;;;16.39;97.69;100048.16;6105323;23;20017;-86
2021/09/09 02:43:00;;;;;;;17.08;12.95;;;14.70;99.90;;;16.23;97.23;100043.81;6105604;23;20445;-86
2021/09/09 02:45:27;;;;;;;17.52;12.63;;;14.60;99.90;;;16.09;97.13;100045.88;6131725;23;20006;-85
2021/09/09 02:47:53;;;;;;;16.35;11.48;;;14.50;99.90;;;15.83;96.79;100050.03;6106193;23;20084;-85
2021/09/09 02:50:20;;;;;;;18.17;12.40;;;14.20;99.90;;;15.75;97.55;100045.66;6106232;23;20009;-83
2021/09/09 02:52:46;;;;;;;18.38;12.15;;;14.10;99.90;;;15.65;98.41;100041.66;6105815;23;20036;-84
2021/09/09 02:55:12;;;;;;;19.30;13.77;;;14.00;99.90;;;15.68;99.04;100037.22;6130312;23;20010;-85
2021/09/09 02:57:39;;;;;;;19.02;13.77;;;14.00;99.90;;;15.72;99.83;100038.81;6106688;23;20111;-85
2021/09/09 03:00:07;;;;;;;19.75;14.70;;;14.10;99.90;;;15.76;99.94;100039.59;6132851;23;20006;-85
2021/09/09 03:02:34;;;;;;;22.95;14.18;;;14.10;99.90;;;15.74;99.86;100033.56;6108220;23;20014;-83
2021/09/09 03:05:00;;;;;;;19.23;13.50;;;14.00;99.90;;;15.70;99.65;100027.16;6109059;23;20029;-86
2021/09/09 03:07:26;;;;;;;20.33;13.80;;;14.00;99.90;;;15.63;99.64;100029.22;6108147;23;20088;-84
2021/09/09 03:09:51;;;;;;;20.02;14.35;;;14.00;99.90;;;15.54;100.00;100026.03;6132364;23;20010;-86
2021/09/09 03:12:17;;;;;;;18.58;13.13;;;13.90;99.90;;;15.49;100.00;100020.78;6108985;23;20010;-87
2021/09/09 03:14:43;;;;;;;19.92;13.90;;;13.80;99.90;;;15.54;100.00;100020.41;6133658;23;20020;-84
2021/09/09 03:17:10;;;;;;;23.02;15.35;;;13.80;99.90;;;15.67;100.00;100013.09;6109235;23;20053;-85
2021/09/09 03:19:38;;;;;;;20.77;14.80;;;14.00;99.90;;;15.75;100.00;100018.31;6113597;23;19994;-83
2021/09/09 03:22:05;;;;;;;17.33;13.20;;;14.00;99.90;;;15.71;100.00;100013.88;6127770;23;20012;-83
2021/09/09 03:24:32;;;;;;;22.90;14.77;;;14.00;99.90;;;15.69;100.00;100013.50;6117857;23;20056;-86
2021/09/09 03:26:58;;;;;;;17.25;13.45;;;14.00;99.90;;;15.56;99.62;100015.16;6108477;23;20045;-85
2021/09/09 03:29:24;;;;;;;17.52;12.73;;;13.90;99.90;;;15.42;100.00;100010.31;6108483;23;20428;-86
2021/09/09 03:31:51;;;;;;;22.50;13.23;;;13.80;99.90;;;15.39;100.00;99994.25;6108109;23;20006;-86
2021/09/09 03:34:16;;;;;;;20.08;15.07;;;13.80;99.90;;;15.36;100.00;99999.91;6108967;23;20020;-86
2021/09/09 03:36:42;;;;;;;17.98;12.60;;;13.70;99.90;;;15.31;100.00;99996.28;6110218;23;20037;-86
2021/09/09 03:39:08;;;;;;;20.60;14.75;;;13.70;99.90;;;15.28;100.00;100004.75;6109428;23;20068;-87
2021/09/09 03:41:35;;;;;;;18.40;13.55;;;13.60;99.90;;;15.25;100.00;100003.53;6110591;23;20017;-86
2021/09/09 03:44:04;;;;;;;19.58;13.73;;;13.60;99.90;;;15.18;100.00;100002.75;6111048;23;20429;-87
2021/09/09 03:46:30;;;;;;;19.15;12.65;;;13.50;99.90;;;15.11;100.00;99999.94;6111445;23;20021;-86
2021/09/09 03:48:56;;;;;;;17.90;12.32;;;13.50;99.90;;;15.02;100.00;99993.94;6111561;23;20005;-88
2021/09/09 03:51:23;;;;;;;18.60;13.50;;;13.40;99.90;;;14.91;100.00;99996.75;6113267;23;20020;-87
2021/09/09 03:53:49;;;;;;;18.80;13.43;;;13.40;99.90;;;14.84;100.00;99993.94;6120621;23;19998;-85
2021/09/09 03:56:14;;;;;;;19.02;14.35;;;13.20;99.90;;;14.81;100.00;99997.56;6147433;23;20072;-85
2021/09/09 03:58:40;;;;;;;23.70;15.25;;;13.20;99.90;;;14.89;100.00;100004.00;6131122;23;20006;-84
2021/09/09 04:01:07;;;;;;;18.58;13.63;;;13.30;99.90;;;14.86;100.00;100000.00;6106930;23;20006;-84
2021/09/09 04:03:33;;;;;;;20.35;13.90;;;13.20;99.90;;;14.85;100.00;99998.38;6107479;23;20080;-85
2021/09/09 04:05:59;;;;;;;19.00;14.43;;;13.20;99.90;;;14.78;100.00;100004.81;6132304;23;20433;-88
2021/09/09 04:08:25;;;;;;;20.38;13.95;;;13.20;99.90;;;14.72;100.00;100006.41;6107939;23;20009;-86
2021/09/09 04:10:50;;;;;;;17.30;13.25;;;13.10;99.90;;;14.65;100.00;100008.41;6107802;23;20372;-85
2021/09/09 04:13:16;;;;;;;16.77;12.25;;;13.00;99.90;;;14.52;100.00;100005.19;6108394;23;20037;-85
2021/09/09 04:15:42;;;;;;;17.42;13.40;;;12.90;99.90;;;14.43;100.00;100009.59;6106356;23;20336;-85
2021/09/09 04:18:08;;;;;;;17.73;12.18;;;12.80;99.90;;;14.33;100.00;100004.72;6107628;23;20017;-84
2021/09/09 04:20:34;;;;;;;17.20;12.27;;;12.80;99.90;;;14.25;100.00;100006.75;6106194;23;20223;-85
2021/09/09 04:23:00;;;;;;;18.17;13.30;;;12.70;99.90;;;14.20;100.00;100007.94;6107268;23;20393;-86
2021/09/09 04:25:26;;;;;;;17.63;12.77;;;12.60;99.90;;;14.16;100.00;100009.91;6107529;23;20056;-84
2021/09/09 04:27:51;;;;;;;24.85;14.13;;;12.60;99.90;;;14.15;100.00;100004.72;6105679;23;20010;-84
2021/09/09 04:30:17;;;;;;;21.63;14.95;;;12.60;99.90;;;14.15;100.00;100007.53;6105235;23;20009;-87
2021/09/09 04:32:43;;;;;;;19.15;13.52;;;12.50;99.90;;;14.17;100.00;100002.31;6108517;23;20105;-85
2021/09/09 04:35:11;;;;;;;19.73;14.57;;;12.50;99.90;;;14.12;100.00;100003.50;6131166;23;20109;-86
2021/09/09 04:37:37;;;;;;;17.33;13.02;;;12.50;99.90;;;14.07;100.00;99998.25;6107275;23;20433;-86
2021/09/09 04:40:05;;;;;;;17.70;13.25;;;12.50;99.90;;;14.05;100.00;100002.69;6135444;23;20380;-88
2021/09/09 04:42:31;;;;;;;22.30;15.48;;;12.50;99.90;;;14.05;100.00;99994.25;6137732;23;20016;-86
2021/09/09 04:44:57;;;;;;;19.95;14.52;;;12.50;99.90;;;14.06;100.00;99990.25;6139316;23;20030;-85
2021/09/09 04:47:23;;;;;;;22.33;16.55;;;12.40;99.90;;;14.08;100.00;99997.06;6111824;23;20010;-86
2021/09/09 04:49:48;;;;;;;22.02;15.30;;;12.50;99.90;;;14.11;100.00;99996.28;6114989;23;20016;-85
2021/09/09 04:52:14;;;;;;;21.52;15.57;;;12.50;99.90;;;14.11;100.00;99987.84;6111793;23;20073;-85
2021/09/09 04:54:40;;;;;;;20.17;15.32;;;12.50;99.90;;;14.12;100.00;99994.28;6111982;23;20153;-85
2021/09/09 04:57:06;;;;;;;22.38;15.90;;;12.50;99.90;;;14.11;100.00;99996.28;6137290;23;20002;-85
2021/09/09 04:59:32;;;;;;;23.83;16.08;;;12.50;99.90;;;14.14;100.00;99991.88;6136439;23;20053;-85
2021/09/09 05:01:58;;;;;;;22.90;16.33;;;12.50;99.90;;;14.15;100.00;99990.66;6133954;23;20009;-86
2021/09/09 05:04:24;;;;;;;22.05;15.93;;;12.50;99.90;;;14.17;100.00;100005.09;6108128;23;20060;-85
2021/09/09 05:06:50;;;;;;;21.85;16.48;;;12.60;99.90;;;14.18;100.00;99999.09;6107080;23;20069;-87
2021/09/09 05:09:16;;;;;;;25.13;16.25;;;12.60;99.90;;;14.03;100.00;99997.44;6106791;23;20059;-85
2021/09/09 05:11:42;;;;;;;22.70;15.98;;;12.60;99.90;;;13.88;100.00;99992.19;6132701;23;20053;-87
2021/09/09 05:14:08;;;;;;;24.83;15.52;;;12.60;99.90;;;13.83;100.00;99990.59;6107035;23;20010;-88
2021/09/09 05:16:34;;;;;;;22.85;14.93;;;12.50;99.90;;;13.80;100.00;99988.56;6108282;23;20010;-85
2021/09/09 05:19:00;;;;;;;23.58;14.93;;;12.50;99.90;;;13.82;100.00;99993.78;6110050;23;20017;-85
2021/09/09 05:21:25;;;;;;;21.77;15.43;;;12.50;99.90;;;13.83;100.00;99984.97;6110310;23;20009;-86
2021/09/09 05:23:51;;;;;;;23.23;16.05;;;12.50;99.90;;;13.84;100.00;99989.38;6110098;23;20413;-86
2021/09/09 05:26:17;;;;;;;25.13;17.92;;;12.50;99.90;;;13.90;100.00;99987.00;6110095;23;20064;-87
2021/09/09 05:28:44;;;;;;;21.63;15.52;;;12.60;99.90;;;13.93;100.00;99980.59;6125082;23;20085;-86
2021/09/09 05:31:10;;;;;;;22.55;15.48;;;12.60;99.90;;;13.92;100.00;99978.97;6115790;23;20077;-86
2021/09/09 05:33:36;;;;;;;21.85;14.93;;;12.70;99.90;;;13.94;100.00;99994.22;6108744;23;20014;-84
2021/09/09 05:36:02;;;;;;;22.95;15.55;;;12.70;99.90;;;13.98;100.00;99988.63;6137420;23;20098;-85
2021/09/09 05:38:29;;;;;;;24.80;16.00;;;12.70;99.90;;;14.04;100.00;99995.44;6110520;23;20074;-87
2021/09/09 05:40:55;;;;;;;28.45;16.50;;;12.70;99.90;;;14.09;100.00;99995.06;6115884;23;20009;-86
2021/09/09 05:43:22;;;;;;;25.65;16.23;;;12.70;99.90;;;14.17;100.00;100002.31;6116912;23;20017;-87
2021/09/09 05:45:48;;;;;;;23.88;16.10;;;12.80;99.90;;;14.23;100.00;99993.09;6123538;23;20066;-86
2021/09/09 05:48:15;;;;;;;24.75;15.25;;;12.90;99.90;;;14.34;100.00;99992.34;6112633;23;20010;-87
2021/09/09 05:50:41;;;;;;;20.98;14.30;;;13.00;99.90;;;14.45;100.00;99987.53;6110024;23;20010;-88
2021/09/09 05:53:07;;;;;;;25.27;15.95;;;13.10;99.90;;;14.59;100.00;99985.53;6111165;23;20340;-86
2021/09/09 05:55:33;;;;;;;26.65;15.73;;;13.20;99.90;;;14.76;100.00;99987.53;6132734;23;20002;-87
2021/09/09 05:58:00;;;;;;;22.75;14.75;;;13.40;99.90;;;14.96;100.00;99982.28;6107326;23;20006;-86
2021/09/09 06:00:27;;;;;;;22.58;15.18;;;13.50;99.90;;;15.16;100.00;99977.03;6107735;23;20006;-86
2021/09/09 06:02:53;;;;;;;22.48;16.20;;;13.70;99.90;;;15.39;100.00;99976.56;6106713;23;20013;-85
2021/09/09 06:05:19;;;;;;;20.85;14.38;;;13.90;99.90;;;15.70;100.00;99972.88;6131621;23;20014;-85
2021/09/09 06:07:46;;;;;;;20.30;13.93;;;14.00;99.90;;;16.03;100.00;99969.47;6131444;23;20168;-86
2021/09/09 06:10:12;;;;;;;22.73;15.48;;;14.20;99.90;;;16.41;100.00;99966.84;6107354;23;20088;-86
2021/09/09 06:12:38;;;;;;;20.63;13.50;;;14.50;99.90;;;16.75;100.00;99979.06;6108440;23;20038;-87
2021/09/09 06:15:06;;;;;;;18.52;12.98;;;14.70;99.90;;;17.16;100.00;99970.59;6107713;23;20013;-85
2021/09/09 06:17:32;;;;;;;17.17;12.43;;;14.90;99.90;;;17.57;100.00;99974.19;6108136;23;20013;-86
2021/09/09 06:19:58;;;;;;;19.92;12.07;;;15.20;99.90;;;18.01;99.14;99966.78;6108142;23;20017;-86
2021/09/09 06:22:24;;;;;;;23.50;11.98;;;15.60;99.90;;;18.36;96.69;99972.72;6109141;23;20009;-86
2021/09/09 06:24:49;;;;;;;17.27;12.15;;;15.80;99.90;;;18.69;94.45;99971.00;6109462;23;20041;-86
2021/09/09 06:27:15;;;;;;;21.13;11.93;;;16.10;99.90;;;19.08;92.36;99981.63;6109889;23;20006;-84
2021/09/09 06:29:41;;;;;;;23.58;12.70;;;16.40;99.90;;;19.42;89.68;99976.56;6109627;23;20384;-86
2021/09/09 06:32:08;;;;;;;23.73;12.85;;;16.80;99.90;;;19.73;87.93;99987.69;6133986;23;20465;-86
2021/09/09 06:34:35;;;;;;;24.08;12.55;;;17.20;99.90;;;19.98;87.17;99985.13;6109795;23;20014;-86
2021/09/09 06:37:01;;;;;;;21.45;12.05;;;17.50;99.90;;;20.17;85.37;99984.28;6109650;23;20322;-87
2021/09/09 06:39:27;;;;;;;22.75;12.20;;;17.80;99.90;;;20.28;83.43;99981.25;6111537;23;20005;-85
2021/09/09 06:41:53;;;;;;;22.00;12.00;;;18.00;99.90;;;20.39;82.08;99981.78;6131210;23;20033;-89
2021/09/09 06:44:19;;;;;;;26.67;12.93;;;18.20;99.90;;;20.49;81.73;99984.38;6157814;23;20028;-91
2021/09/09 06:46:45;;;;;;;23.55;12.25;;;18.40;99.90;;;20.57;80.99;99987.06;6156617;23;20017;-89
2021/09/09 06:49:11;;;;;;;24.50;14.20;;;18.50;99.90;;;20.58;80.83;99978.09;6156020;23;20013;-87
2021/09/09 06:51:39;;;;;;;21.67;13.68;;;18.60;99.90;;;20.64;80.35;99989.72;6156204;23;20105;-90
2021/09/09 06:54:05;;;;;;;27.10;13.77;;;18.60;99.90;;;20.73;80.42;99987.06;6131523;23;20010;-88
2021/09/09 06:56:31;;;;;;;26.35;13.88;;;18.80;99.90;;;20.86;80.11;99988.75;6132864;23;20017;-90
2021/09/09 06:58:57;;;;;;;21.60;13.10;;;18.90;99.90;;;21.06;79.95;99985.81;6133301;23;20033;-90
2021/09/09 07:01:23;;;;;;;19.45;12.85;;;19.10;99.90;;;21.27;79.79;99984.47;6132790;23;20454;-87
2021/09/09 07:03:49;;;;;;;28.55;13.88;;;19.30;99.90;;;21.39;79.46;99980.88;6133267;23;20016;-90
2021/09/09 07:06:16;;;;;;;26.92;13.13;;;19.40;99.90;;;21.49;78.72;99974.09;6133424;23;20096;-86
2021/09/09 07:08:43;;;;;;;25.05;13.10;;;19.60;99.90;;;21.72;78.66;99978.72;6133266;23;20447;-90
2021/09/09 07:11:09;;;;;;;22.33;13.25;;;19.80;99.90;;;21.89;77.55;99971.78;6133402;23;20505;-87
2021/09/09 07:13:36;;;;;;;30.63;14.32;;;20.00;99.90;;;22.09;76.96;99983.72;6132343;23;20397;-86
2021/09/09 07:16:04;;;;;;;24.45;12.50;;;20.10;99.90;;;22.27;75.74;99984.00;6158119;23;20420;-90
2021/09/09 07:18:30;;;;;;;21.58;12.23;;;20.30;99.90;;;22.44;75.26;99979.78;6132186;23;20037;-89
2021/09/09 07:20:57;;;;;;;22.90;11.25;;;20.50;99.90;;;22.67;74.71;99975.81;6159071;23;20001;-89
2021/09/09 07:23:23;;;;;;;20.45;12.50;;;20.70;99.90;;;22.99;73.48;99981.25;6159614;23;20005;-88
2021/09/09 07:25:50;;;;;;;18.52;12.02;;;21.00;99.90;;;23.27;72.08;99975.81;6134322;23;20349;-86
2021/09/09 07:28:16;;;;;;;17.67;11.82;;;21.20;99.90;;;23.48;71.08;99981.56;6135494;23;20081;-84
2021/09/09 07:30:43;;;;;;;18.20;11.40;;;21.40;99.90;;;23.71;70.53;99980.34;6135952;23;20014;-85
2021/09/09 07:33:10;;;;;;;19.50;11.35;;;21.70;99.90;;;23.90;69.20;99979.19;6162072;23;20014;-88
2021/09/09 07:35:36;;;;;;;18.30;10.95;;;21.90;99.90;;;24.16;69.37;99984.78;6138958;23;20009;-86
2021/09/09 07:38:02;;;;;;;15.00;10.40;;;22.10;99.90;;;24.36;67.07;99988.06;6135554;23;20115;-89
2021/09/09 07:40:30;;;;;;;18.02;10.57;;;22.30;99.90;;;24.58;66.14;99985.94;6158997;23;20032;-88
2021/09/09 07:42:56;;;;;;;16.80;9.90;;;22.50;99.90;;;24.81;65.13;99988.25;6131572;23;20021;-89
2021/09/09 07:45:22;;;;;;;19.85;9.60;;;22.70;99.90;;;25.06;64.98;99984.34;6156461;23;20017;-89
2021/09/09 07:47:48;;;;;;;11.43;8.48;;;23.00;99.90;;;25.29;64.76;99989.47;6131639;23;20009;-90
2021/09/09 07:50:14;;;;;;;14.75;9.30;;;23.20;99.90;;;25.57;64.46;99991.09;6157229;23;20072;-90
2021/09/09 07:52:41;;;;;;;14.68;8.40;;;23.40;99.90;;;25.75;62.58;99978.84;6155962;23;20146;-87
2021/09/09 07:55:10;;;;;;;16.65;8.85;;;23.60;99.90;;;26.03;61.59;99988.22;6132045;23;20013;-89
2021/09/09 07:57:38;;;;;;;14.70;8.45;;;23.90;99.90;;;26.21;59.16;99982.47;6132182;23;20158;-86
2021/09/09 08:00:06;;;;;;;14.00;8.30;;;24.00;99.90;;;26.46;56.58;99981.25;6133402;23;20028;-91
2021/09/09 08:02:31;;;;;;;12.13;8.23;;;24.30;99.90;;;26.71;55.37;99981.63;6158214;23;20009;-89
2021/09/09 08:04:57;;;;;;;11.13;7.65;;;24.50;99.90;;;26.95;55.62;99986.63;6157738;23;20016;-89
2021/09/09 08:07:23;;;;;;;13.55;8.23;;;24.70;99.90;;;27.08;52.82;99990.03;6158541;23;20017;-91
2021/09/09 08:09:49;;;;;;;10.63;8.57;;;24.80;99.90;;;27.06;52.29;99993.41;6156769;23;20049;-89
2021/09/09 08:12:15;;;;;;;13.05;7.35;;;24.90;99.90;;;27.29;52.12;99985.31;6157655;23;20458;-88
2021/09/09 08:14:41;;;;;;;10.90;7.03;;;25.20;99.90;;;27.53;51.56;99983.22;6159575;23;20403;-86
2021/09/09 08:17:06;;;;;;;9.88;6.80;;;25.30;99.90;;;27.66;51.34;99989.47;6133923;23;20471;-89
2021/09/09 08:19:32;;;;;;;11.95;6.88;;;25.50;99.90;;;28.02;50.29;99991.22;6133188;23;20036;-89
2021/09/09 08:21:58;;;;;;;9.50;5.85;;;25.70;99.90;;;28.17;48.91;99995.72;6157813;23;20024;-90
2021/09/09 08:24:25;;;;;;;10.50;7.43;;;25.90;99.90;;;27.92;48.26;99995.47;6159775;23;20040;-89
2021/09/09 08:26:51;;;;;;;10.15;6.40;;;25.90;99.90;;;28.21;48.83;100002.06;6164897;23;20058;-86
2021/09/09 08:29:18;;;;;;;12.25;6.90;;;26.00;99.90;;;28.40;47.06;100001.84;6134982;23;20009;-86
2021/09/09 08:31:45;;;;;;;11.77;6.93;;;26.10;99.90;;;28.13;47.94;100005.78;6134215;23;20034;-91
2021/09/09 08:34:11;;;;;;;8.65;6.68;;;26.20;99.90;;;28.33;48.08;100005.09;6158113;23;20014;-87
2021/09/09 08:36:38;;;;;;;7.60;6.32;;;26.30;99.90;;;28.23;49.34;100004.41;6158983;23;20012;-88
2021/09/09 08:39:04;;;;;;;8.48;6.18;;;26.30;99.90;;;28.33;46.42;99997.28;6162543;23;20020;-91
2021/09/09 08:41:30;;;;;;;11.57;6.57;;;26.40;97.80;;;28.30;47.46;99998.28;6160896;23;20013;-86
2021/09/09 08:43:57;;;;;;;12.25;6.85;;;26.50;98.50;;;28.64;47.47;100003.28;6133060;23;20006;-92
2021/09/09 08:46:24;;;;;;;10.98;6.97;;;26.50;98.50;;;28.78;47.31;100008.25;6137943;23;20016;-90
2021/09/09 08:48:50;;;;;;;12.05;6.75;;;26.70;98.30;;;28.43;47.69;100007.38;6164056;23;20084;-89
2021/09/09 08:51:19;;;;;;;9.02;6.50;;;26.70;97.70;;;29.00;46.97;100010.66;6137584;23;20021;-87
2021/09/09 08:53:45;;;;;;;14.63;6.53;;;26.90;97.60;;;29.19;46.83;100014.06;6160860;23;20013;-88
2021/09/09 08:56:16;;;;;;;10.27;6.70;;;27.10;97.60;;;29.39;45.97;100016.19;6161535;23;20005;-88
2021/09/09 08:58:44;;;;;;;7.80;6.22;;;27.20;96.40;;;29.62;45.50;100012.31;6161227;23;20021;-88
2021/09/09 09:01:14;;;;;;;8.82;6.38;;;27.30;95.90;;;29.57;45.19;100013.06;6161900;23;20025;-88
2021/09/09 09:03:51;;;;;;;7.00;6.25;;;27.40;95.30;;;29.49;47.50;100011.91;6137258;23;20031;-88
2021/09/09 09:06:26;;;;;;;11.90;6.50;;;27.40;97.30;;;29.93;46.08;100015.31;6137259;23;20057;-90
2021/09/09 09:09:11;;;;;;;11.05;7.15;;;27.60;96.40;;;30.15;46.17;100014.78;6163153;23;20005;-89
2021/09/09 09:11:47;;;;;;;10.65;6.72;;;27.70;96.20;;;30.58;46.88;100010.75;6137092;23;20012;-89
2021/09/09 09:14:20;;;;;;;7.70;5.88;;;28.10;97.30;;;30.97;43.19;100008.19;6135335;23;20013;-87
2021/09/09 09:16:51;;;;;;;11.55;6.43;;;28.30;93.10;;;31.07;43.37;100017.44;6160855;23;20321;-90
2021/09/09 09:19:30;;;;;;;9.02;5.75;;;28.60;93.40;;;31.33;42.92;100018.91;6136459;23;20009;-89
2021/09/09 09:22:05;;;;;;;7.15;5.53;;;28.80;92.80;;;31.20;43.03;100017.78;6135953;23;20013;-90
2021/09/09 09:24:41;;;;;;;11.52;6.70;;;28.90;91.90;;;31.27;41.65;100014.41;6136748;23;20016;-90
2021/09/09 09:27:10;;;;;;;9.73;6.32;;;28.90;90.20;;;30.58;42.74;100019.41;6162562;23;20001;-90
2021/09/09 09:29:39;;;;;;;7.32;5.97;;;28.70;89.40;;;30.20;42.21;100011.97;6137591;23;20020;-91
2021/09/09 09:32:18;;;;;;;9.27;6.10;;;28.50;86.70;;;29.72;44.27;100008.78;6137575;23;20006;-89
2021/09/09 09:34:46;;;;;;;8.55;5.65;;;28.20;88.40;;;30.10;43.30;99996.16;6137446;23;20013;-91
2021/09/09 09:37:23;;;;;;;8.55;6.00;;;28.30;88.50;;;30.02;43.40;100002.88;6159987;23;20010;-91
2021/09/09 09:39:50;;;;;;;7.95;6.32;;;28.30;87.10;;;30.24;44.07;100005.97;6166066;23;20075;-87
2021/09/09 09:42:26;;;;;;;10.23;6.35;;;28.40;89.80;;;30.02;43.11;100002.88;6149750;23;20028;-88
2021/09/09 09:44:52;;;;;;;8.38;6.15;;;28.30;85.70;;;30.35;42.74;100011.81;6152305;23;20005;-88
2021/09/09 09:47:21;;;;;;;9.32;5.60;;;28.40;86.60;;;30.51;43.20;100001.78;6179493;23;20012;-87
2021/09/09 09:49:56;;;;;;;9.70;6.10;;;28.50;87.20;;;30.58;41.86;100001.31;6152455;23;20014;-82
2021/09/09 09:52:29;;;;;;;8.68;6.07;;;28.70;84.40;;;30.78;42.10;100004.88;6153430;23;20014;-83
2021/09/09 09:54:59;;;;;;;7.75;6.07;;;28.70;85.00;;;30.90;41.91;100002.88;6149090;23;20039;-88
2021/09/09 09:57:29;;;;;;;10.15;6.00;;;28.90;84.20;;;31.21;42.75;99999.16;6172016;23;20002;-90
2021/09/09 09:59:55;;;;;;;9.60;6.38;;;29.10;85.90;;;31.03;41.99;99999.56;6132980;23;20069;-92